createdAt,value
2023-03-16T00:00:44.659Z,-2.84
2023-03-16T00:05:53.165Z,-2.95
2023-03-16T00:11:00.347Z,-3.02
2023-03-16T00:16:08.027Z,-2.95
2023-03-16T00:21:15.023Z,-2.80
2023-03-16T00:26:22.601Z,-2.61
2023-03-16T00:31:30.153Z,-2.44
2023-03-16T00:36:38.463Z,-2.25
2023-03-16T00:41:45.721Z,-2.13
2023-03-16T00:46:53.081Z,-2.12
2023-03-16T00:52:00.235Z,-2.21
2023-03-16T00:57:07.457Z,-2.33
2023-03-16T01:02:15.700Z,-2.43
2023-03-16T01:07:23.701Z,-2.53
2023-03-16T01:12:31.319Z,-2.67
2023-03-16T01:17:38.557Z,-2.77
2023-03-16T01:22:46.273Z,-2.81
2023-03-16T01:27:53.934Z,-2.80
2023-03-16T01:33:01.282Z,-2.72
2023-03-16T01:38:09.994Z,-2.58
2023-03-16T01:43:21.113Z,-2.52
2023-03-16T01:48:30.947Z,-2.60
2023-03-16T01:53:39.917Z,-2.74
2023-03-16T01:58:48.135Z,-2.87
2023-03-16T02:04:02.543Z,-2.97
2023-03-16T02:09:11.660Z,-3.09
2023-03-16T02:14:18.957Z,-3.19
2023-03-16T02:19:35.832Z,-3.23
2023-03-16T02:24:43.776Z,-3.19
2023-03-16T02:30:12.918Z,-3.08
2023-03-16T02:35:27.904Z,-2.99
2023-03-16T02:40:36.897Z,-2.91
2023-03-16T02:45:52.442Z,-2.94
2023-03-16T02:51:01.005Z,-3.00
2023-03-16T02:56:09.025Z,-3.08
2023-03-16T03:01:17.056Z,-3.17
2023-03-16T03:06:25.412Z,-3.25
2023-03-16T03:11:33.221Z,-3.31
2023-03-16T03:16:40.812Z,-3.28
2023-03-16T03:21:48.455Z,-3.17
2023-03-16T03:26:55.710Z,-3.12
2023-03-16T03:32:03.137Z,-3.10
2023-03-16T03:37:11.435Z,-3.10
2023-03-16T03:42:20.050Z,-3.11
2023-03-16T03:47:27.429Z,-3.13
2023-03-16T03:52:34.717Z,-3.14
2023-03-16T03:57:42.361Z,-3.15
2023-03-16T04:02:50.459Z,-3.14
2023-03-16T04:08:12.521Z,-3.08
2023-03-16T04:13:20.167Z,-2.93
2023-03-16T04:18:27.524Z,-2.84
2023-03-16T04:23:34.950Z,-2.78
2023-03-16T04:28:43.435Z,-2.75
2023-03-16T04:33:54.884Z,-2.80
2023-03-16T04:39:02.712Z,-2.91
2023-03-16T04:44:10.110Z,-3.04
2023-03-16T04:49:17.366Z,-3.17
2023-03-16T04:54:25.629Z,-3.27
2023-03-16T04:59:33.147Z,-3.32
2023-03-16T05:04:57.561Z,-3.26
2023-03-16T05:10:05.421Z,-3.14
2023-03-16T05:15:14.329Z,-3.03
2023-03-16T05:20:23.533Z,-2.98
2023-03-16T05:25:32.986Z,-2.96
2023-03-16T05:30:45.459Z,-2.97
2023-03-16T05:35:58.302Z,-2.95
2023-03-16T05:41:06.900Z,-2.93
2023-03-16T05:46:30.101Z,-2.84
2023-03-16T05:51:38.638Z,-2.69
2023-03-16T05:56:46.444Z,-2.44
2023-03-16T06:01:55.287Z,-2.07
2023-03-16T06:07:02.553Z,-1.58
2023-03-16T06:12:10.886Z,-1.06
2023-03-16T06:17:20.516Z,-0.59
2023-03-16T06:22:28.053Z,-0.16
2023-03-16T06:27:35.468Z,0.24
2023-03-16T06:32:52.397Z,0.68
2023-03-16T06:38:00.324Z,1.15
2023-03-16T06:43:17.154Z,1.63
2023-03-16T06:48:24.688Z,2.02
2023-03-16T06:53:32.204Z,2.40
2023-03-16T06:58:39.601Z,2.75
2023-03-16T07:03:47.858Z,3.05
2023-03-16T07:09:01.535Z,3.35
2023-03-16T07:14:10.210Z,3.66
2023-03-16T07:19:17.832Z,4.05
2023-03-16T07:32:17.696Z,4.75
2023-03-16T07:37:26.986Z,4.77
2023-03-16T07:42:36.809Z,4.88
2023-03-16T07:47:49.173Z,4.93
2023-03-16T07:53:06.556Z,4.72
2023-03-16T07:58:15.651Z,4.49
2023-03-16T08:03:23.851Z,4.33
2023-03-16T08:08:31.788Z,4.34
2023-03-16T08:13:37.613Z,4.16
2023-03-16T08:18:44.923Z,3.93
2023-03-16T08:23:52.814Z,3.76
2023-03-16T08:29:03.603Z,3.62
2023-03-16T08:34:14.047Z,3.59
2023-03-16T08:39:23.665Z,4.47
2023-03-16T08:44:31.262Z,5.32
2023-03-16T08:49:39.558Z,5.71
2023-03-16T08:55:02.456Z,5.63
2023-03-16T09:00:15.625Z,5.31
2023-03-16T09:05:25.638Z,4.95
2023-03-16T09:10:33.359Z,4.67
2023-03-16T09:15:40.755Z,4.45
2023-03-16T09:20:48.142Z,4.21
2023-03-16T09:29:28.292Z,3.98
2023-03-16T09:34:36.807Z,3.94
2023-03-16T09:39:44.244Z,3.98
2023-03-16T09:45:03.515Z,3.99
2023-03-16T09:50:47.740Z,3.98
2023-03-16T09:56:04.900Z,3.97
2023-03-16T10:01:25.454Z,3.93
2023-03-16T10:06:33.524Z,3.97
2023-03-16T10:11:45.378Z,4.05
2023-03-16T10:16:57.215Z,4.24
2023-03-16T10:22:14.319Z,4.39
2023-03-16T10:27:28.460Z,4.44
2023-03-16T10:32:38.685Z,4.41
2023-03-16T10:37:49.349Z,4.32
2023-03-16T10:42:57.022Z,4.24
2023-03-16T10:48:15.698Z,4.19
2023-03-16T10:53:30.973Z,4.15
2023-03-16T10:58:49.207Z,4.12
2023-03-16T11:03:58.643Z,4.13
2023-03-16T11:09:16.940Z,4.17
2023-03-16T11:14:35.270Z,4.28
2023-03-16T11:19:51.871Z,4.35
2023-03-16T11:25:06.675Z,4.42
2023-03-16T11:30:20.801Z,4.54
2023-03-16T11:35:46.542Z,4.70
2023-03-16T11:41:02.874Z,4.89
2023-03-16T11:46:16.948Z,5.02
2023-03-16T11:51:36.902Z,5.12
2023-03-16T11:56:51.252Z,5.20
2023-03-16T12:02:19.368Z,5.21
2023-03-16T12:07:46.592Z,5.21
2023-03-16T12:13:03.366Z,5.14
2023-03-16T12:18:18.210Z,5.13
2023-03-16T12:23:33.011Z,5.22
2023-03-16T12:28:42.324Z,5.35
2023-03-16T12:34:09.965Z,5.41
2023-03-16T12:39:36.536Z,5.43
2023-03-16T12:44:50.269Z,5.40
2023-03-16T12:50:30.274Z,5.29
2023-03-16T12:55:47.258Z,5.21
2023-03-16T13:01:01.005Z,5.15
2023-03-16T13:06:17.951Z,5.07
2023-03-16T13:11:27.190Z,5.03
2023-03-16T13:17:05.628Z,5.05
2023-03-16T13:22:43.199Z,5.05
2023-03-16T13:28:01.677Z,5.01
2023-03-16T13:33:43.827Z,4.94
2023-03-16T13:39:04.474Z,4.91
2023-03-16T13:44:18.798Z,4.89
2023-03-16T13:49:26.261Z,4.85
2023-03-16T13:55:00.143Z,4.87
2023-03-16T14:00:18.374Z,4.93
2023-03-16T14:05:30.870Z,5.00
2023-03-16T14:10:40.513Z,5.05
2023-03-16T14:15:47.986Z,5.13
2023-03-16T14:20:56.602Z,5.23
2023-03-16T14:26:08.131Z,5.35
2023-03-16T14:31:20.982Z,5.42
2023-03-16T14:36:38.527Z,5.46
2023-03-16T14:42:43.490Z,5.53
2023-03-16T14:48:21.735Z,5.61
2023-03-16T14:53:32.034Z,5.72
2023-03-16T14:58:42.304Z,5.79
2023-03-16T15:03:49.523Z,5.82
2023-03-16T15:08:57.443Z,5.84
2023-03-16T15:14:35.786Z,5.83
2023-03-16T15:19:43.298Z,5.80
2023-03-16T15:24:52.677Z,5.76
2023-03-16T15:29:59.994Z,5.75
2023-03-16T15:35:08.130Z,5.73
2023-03-16T15:40:22.512Z,5.76
2023-03-16T15:45:44.645Z,5.79
2023-03-16T15:50:58.683Z,5.81
2023-03-16T15:56:08.771Z,5.82
2023-03-16T16:01:24.230Z,5.83
2023-03-16T16:06:32.043Z,5.80
2023-03-16T16:11:40.319Z,5.73
2023-03-16T16:16:48.450Z,5.62
2023-03-16T16:21:55.635Z,5.51
2023-03-16T16:27:02.793Z,5.44
2023-03-16T16:32:25.027Z,5.39
2023-03-16T16:37:35.906Z,5.32
2023-03-16T16:42:43.346Z,5.25
2023-03-16T16:47:52.598Z,5.16
2023-03-16T16:53:00.212Z,5.08
2023-03-16T16:58:23.560Z,4.98
2023-03-16T17:03:34.154Z,4.83
2023-03-16T17:08:41.725Z,4.68
2023-03-16T17:13:49.509Z,4.51
2023-03-16T17:18:57.704Z,4.29
2023-03-16T17:24:05.032Z,4.06
2023-03-16T17:29:23.238Z,3.78
2023-03-16T17:34:33.592Z,3.46
2023-03-16T17:39:42.223Z,3.15
2023-03-16T17:44:53.936Z,2.88
2023-03-16T17:50:01.258Z,2.61
2023-03-16T17:55:09.993Z,2.31
2023-03-16T18:00:28.839Z,2.10
2023-03-16T18:05:37.492Z,1.88
2023-03-16T18:10:47.482Z,1.67
2023-03-16T18:15:55.983Z,1.44
2023-03-16T18:21:03.358Z,1.16
2023-03-16T18:26:11.953Z,0.92
2023-03-16T18:31:25.855Z,0.73
2023-03-16T18:36:36.995Z,0.60
2023-03-16T18:41:44.874Z,0.52
2023-03-16T18:46:55.168Z,0.45
2023-03-16T18:52:03.196Z,0.35
2023-03-16T18:57:15.881Z,0.20
2023-03-16T19:02:34.748Z,-0.02
2023-03-16T19:07:47.176Z,-0.25
2023-03-16T19:12:56.852Z,-0.44
2023-03-16T19:18:04.388Z,-0.60
2023-03-16T19:23:21.911Z,-0.74
2023-03-16T19:28:34.062Z,-0.95
2023-03-16T19:33:42.296Z,-0.99
2023-03-16T19:38:51.202Z,-0.94
2023-03-16T19:44:04.111Z,-0.90
2023-03-16T19:49:19.921Z,-0.83
2023-03-16T19:54:29.691Z,-0.82
2023-03-16T19:59:39.561Z,-0.86
2023-03-16T20:04:46.747Z,-0.94
2023-03-16T20:09:54.604Z,-1.03
2023-03-16T20:15:02.065Z,-1.10
2023-03-16T20:20:21.924Z,-1.22
2023-03-16T20:25:35.384Z,-1.36
2023-03-16T20:30:43.811Z,-1.41
2023-03-16T20:35:54.570Z,-1.36
2023-03-16T20:41:02.736Z,-1.26
2023-03-16T20:46:16.367Z,-1.26
2023-03-16T20:51:24.945Z,-1.24
2023-03-16T20:56:32.917Z,-1.26
2023-03-16T21:01:45.294Z,-1.34
2023-03-16T21:06:53.766Z,-1.42
2023-03-16T21:12:01.319Z,-1.51
2023-03-16T21:17:24.651Z,-1.63
2023-03-16T21:22:35.267Z,-1.74
2023-03-16T21:27:43.828Z,-1.77
2023-03-16T21:32:52.512Z,-1.73
2023-03-16T21:37:59.981Z,-1.66
2023-03-16T21:43:06.631Z,-1.69
2023-03-16T21:48:21.409Z,-1.75
2023-03-16T21:53:33.558Z,-1.80
2023-03-16T21:58:41.740Z,-1.83
2023-03-16T22:03:53.410Z,-1.87
2023-03-16T22:09:02.822Z,-1.89
2023-03-16T22:14:13.097Z,-1.87
2023-03-16T22:19:21.270Z,-1.79
2023-03-16T22:24:34.857Z,-1.64
2023-03-16T22:29:44.991Z,-1.52
2023-03-16T22:34:56.333Z,-1.51
2023-03-16T22:40:05.086Z,-1.57
2023-03-16T22:45:24.080Z,-1.62
2023-03-16T22:50:36.340Z,-1.66
2023-03-16T22:55:46.168Z,-1.70
2023-03-16T23:00:53.998Z,-1.75
2023-03-16T23:06:01.739Z,-1.71
2023-03-16T23:11:17.404Z,-1.61
2023-03-16T23:16:27.544Z,-1.45
2023-03-16T23:21:34.857Z,-1.33
2023-03-16T23:26:41.974Z,-1.33
2023-03-16T23:31:49.253Z,-1.35
2023-03-16T23:36:56.288Z,-1.30
2023-03-16T23:42:04.062Z,-1.26
2023-03-16T23:47:10.964Z,-1.23
2023-03-16T23:52:18.169Z,-1.25
2023-03-16T23:57:25.702Z,-1.25
